createdAt,value
2018-11-05T00:00:24.003Z,10.70
2018-11-05T00:02:54.598Z,10.70
2018-11-05T00:05:22.909Z,10.70
2018-11-05T00:07:51.288Z,10.70
2018-11-05T00:10:19.519Z,10.70
2018-11-05T00:12:47.738Z,10.70
2018-11-05T00:15:16.062Z,10.70
2018-11-05T00:17:44.310Z,10.70
2018-11-05T00:20:12.773Z,10.70
2018-11-05T00:22:41.002Z,10.70
2018-11-05T00:25:10.890Z,10.70
2018-11-05T00:27:39.446Z,10.80
2018-11-05T00:30:09.271Z,10.80
2018-11-05T00:32:37.702Z,10.90
2018-11-05T00:35:06.217Z,11.00
2018-11-05T00:37:34.459Z,11.00
2018-11-05T00:40:02.726Z,10.90
2018-11-05T00:42:30.974Z,10.90
2018-11-05T00:45:06.539Z,10.90
2018-11-05T00:47:34.779Z,10.90
2018-11-05T00:50:03.114Z,10.70
2018-11-05T00:52:31.351Z,10.70
2018-11-05T00:54:59.592Z,10.70
2018-11-05T00:57:27.748Z,10.70
2018-11-05T00:59:56.084Z,10.80
2018-11-05T01:02:24.371Z,10.90
2018-11-05T01:04:52.667Z,10.80
2018-11-05T01:07:20.923Z,10.80
2018-11-05T01:09:49.152Z,10.80
2018-11-05T01:12:17.338Z,10.80
2018-11-05T01:14:45.546Z,10.80
2018-11-05T01:17:13.775Z,10.90
2018-11-05T01:19:42.026Z,10.90
2018-11-05T01:22:10.235Z,10.80
2018-11-05T01:24:38.449Z,10.80
2018-11-05T01:27:06.673Z,10.80
2018-11-05T01:29:34.866Z,10.80
2018-11-05T01:32:03.144Z,10.90
2018-11-05T01:34:31.295Z,11.00
2018-11-05T01:36:59.502Z,11.00
2018-11-05T01:39:27.759Z,11.00
2018-11-05T01:41:56.065Z,11.10
2018-11-05T01:44:24.328Z,10.90
2018-11-05T01:46:52.594Z,10.90
2018-11-05T01:49:20.851Z,10.90
2018-11-05T01:51:49.111Z,10.90
2018-11-05T01:54:17.342Z,10.90
2018-11-05T01:56:45.592Z,10.90
2018-11-05T01:59:13.866Z,10.90
2018-11-05T02:01:42.156Z,10.80
2018-11-05T02:04:10.458Z,10.70
2018-11-05T02:06:38.731Z,10.70
2018-11-05T02:09:07.623Z,10.60
2018-11-05T02:11:35.899Z,10.70
2018-11-05T02:14:04.182Z,10.80
2018-11-05T02:16:32.535Z,10.90
2018-11-05T02:19:00.779Z,11.00
2018-11-05T02:21:29.042Z,10.90
2018-11-05T02:23:57.280Z,10.80
2018-11-05T02:26:25.594Z,10.70
2018-11-05T02:28:53.836Z,10.70
2018-11-05T02:31:22.088Z,10.50
2018-11-05T02:33:50.352Z,10.40
2018-11-05T02:36:18.630Z,10.40
2018-11-05T02:38:46.983Z,10.50
2018-11-05T02:41:15.271Z,10.50
2018-11-05T02:43:43.525Z,10.50
2018-11-05T02:46:11.780Z,10.50
2018-11-05T02:48:40.047Z,10.60
2018-11-05T02:51:08.322Z,10.60
2018-11-05T02:53:36.599Z,10.60
2018-11-05T02:56:05.513Z,10.50
2018-11-05T02:58:33.858Z,10.50
2018-11-05T03:01:02.243Z,10.60
2018-11-05T03:03:30.521Z,10.50
2018-11-05T03:05:58.770Z,10.50
2018-11-05T03:08:27.071Z,10.50
2018-11-05T03:10:55.422Z,10.40
2018-11-05T03:13:23.675Z,10.40
2018-11-05T03:15:52.019Z,10.30
2018-11-05T03:18:20.346Z,10.30
2018-11-05T03:20:48.607Z,10.20
2018-11-05T03:23:16.884Z,10.20
2018-11-05T03:25:45.215Z,10.10
2018-11-05T03:28:13.460Z,10.20
2018-11-05T03:30:41.714Z,10.30
2018-11-05T03:33:09.954Z,10.30
2018-11-05T03:35:38.216Z,10.20
2018-11-05T03:38:06.449Z,10.20
2018-11-05T03:40:35.036Z,10.20
2018-11-05T03:43:03.302Z,10.20
2018-11-05T03:45:31.579Z,10.30
2018-11-05T03:47:59.918Z,10.50
2018-11-05T03:50:28.171Z,10.50
2018-11-05T03:52:56.818Z,10.50
2018-11-05T03:55:25.150Z,10.50
2018-11-05T03:57:53.361Z,10.40
2018-11-05T04:00:21.647Z,10.30
2018-11-05T04:02:49.922Z,10.20
2018-11-05T04:05:18.163Z,10.10
2018-11-05T04:07:46.487Z,10.00
2018-11-05T04:10:14.859Z,10.10
2018-11-05T04:12:43.126Z,10.10
2018-11-05T04:15:11.791Z,10.10
2018-11-05T04:17:40.034Z,10.10
2018-11-05T04:20:10.251Z,10.10
2018-11-05T04:22:38.571Z,10.10
2018-11-05T04:25:06.844Z,10.00
2018-11-05T04:27:35.255Z,10.10
2018-11-05T04:30:03.477Z,10.30
2018-11-05T04:32:31.740Z,10.10
2018-11-05T04:34:59.969Z,10.10
2018-11-05T04:37:28.203Z,10.00
2018-11-05T04:39:56.460Z,10.10
2018-11-05T04:42:24.755Z,10.10
2018-11-05T04:44:53.026Z,10.10
2018-11-05T04:47:21.290Z,10.10
2018-11-05T04:49:49.531Z,10.00
2018-11-05T04:52:17.783Z,10.00
2018-11-05T04:54:46.042Z,10.00
2018-11-05T04:57:14.350Z,10.10
2018-11-05T04:59:42.594Z,10.20
2018-11-05T05:02:10.907Z,10.30
2018-11-05T05:04:39.343Z,10.20
2018-11-05T05:07:07.664Z,10.10
2018-11-05T05:09:35.963Z,10.00
2018-11-05T05:12:04.566Z,10.10
2018-11-05T05:14:32.904Z,10.10
2018-11-05T05:17:01.146Z,10.10
2018-11-05T05:19:29.468Z,10.10
2018-11-05T05:21:57.745Z,10.10
2018-11-05T05:24:26.072Z,10.10
2018-11-05T05:26:54.362Z,10.00
2018-11-05T05:29:22.687Z,10.00
2018-11-05T05:31:50.942Z,9.90
2018-11-05T05:34:19.213Z,9.80
2018-11-05T05:36:47.567Z,9.90
2018-11-05T05:39:15.815Z,9.90
2018-11-05T05:41:44.052Z,10.00
2018-11-05T05:44:12.365Z,10.10
2018-11-05T05:46:40.725Z,10.20
2018-11-05T05:49:09.023Z,10.10
2018-11-05T05:51:37.319Z,10.00
2018-11-05T05:54:05.848Z,9.80
2018-11-05T05:56:34.079Z,9.80
2018-11-05T05:59:02.334Z,9.80
2018-11-05T06:01:30.572Z,9.90
2018-11-05T06:03:58.819Z,9.80
2018-11-05T06:06:27.211Z,9.80
2018-11-05T06:08:55.434Z,9.80
2018-11-05T06:11:23.723Z,9.60
2018-11-05T06:13:51.953Z,9.60
2018-11-05T06:16:20.243Z,9.50
2018-11-05T06:18:48.671Z,9.50
2018-11-05T06:21:16.922Z,9.60
2018-11-05T06:23:45.435Z,9.60
2018-11-05T06:26:14.004Z,9.70
2018-11-05T06:28:42.337Z,9.80
2018-11-05T06:31:10.658Z,9.80
2018-11-05T06:33:38.916Z,9.80
2018-11-05T06:36:07.326Z,9.90
2018-11-05T06:38:35.625Z,10.00
2018-11-05T06:41:04.118Z,10.00
2018-11-05T06:43:32.414Z,10.00
2018-11-05T06:46:00.812Z,10.00
2018-11-05T06:48:29.095Z,10.00
2018-11-05T06:50:57.462Z,9.90
2018-11-05T06:53:25.768Z,10.00
2018-11-05T06:55:54.126Z,10.10
2018-11-05T06:58:22.503Z,10.10
2018-11-05T07:00:50.994Z,10.10
2018-11-05T07:03:19.279Z,10.10
2018-11-05T07:05:47.620Z,10.10
2018-11-05T07:08:15.909Z,10.10
2018-11-05T07:10:44.204Z,10.10
2018-11-05T07:13:12.491Z,10.10
2018-11-05T07:15:40.819Z,10.00
2018-11-05T07:18:09.132Z,10.10
2018-11-05T07:20:37.494Z,10.10
2018-11-05T07:23:05.961Z,10.20
2018-11-05T07:25:34.448Z,10.30
2018-11-05T07:28:02.683Z,10.20
2018-11-05T07:30:31.018Z,10.20
2018-11-05T07:32:59.277Z,10.10
2018-11-05T07:35:27.566Z,10.10
2018-11-05T07:37:55.871Z,10.00
2018-11-05T07:40:24.263Z,10.10
2018-11-05T07:42:52.520Z,10.00
2018-11-05T07:45:22.060Z,10.00
2018-11-05T07:47:50.325Z,10.20
2018-11-05T07:50:20.056Z,10.20
2018-11-05T07:52:48.416Z,10.40
2018-11-05T07:55:18.077Z,10.40
2018-11-05T07:57:47.187Z,10.50
2018-11-05T08:00:21.367Z,10.50
2018-11-05T08:02:51.490Z,10.40
2018-11-05T08:05:21.040Z,10.60
2018-11-05T08:07:49.610Z,10.60
2018-11-05T08:10:17.992Z,10.60
2018-11-05T08:12:46.674Z,10.70
2018-11-05T08:15:16.468Z,10.80
2018-11-05T08:17:45.930Z,10.70
2018-11-05T08:20:14.232Z,10.80
2018-11-05T08:22:42.529Z,10.70
2018-11-05T08:25:11.519Z,10.70
2018-11-05T08:27:40.320Z,10.70
2018-11-05T08:30:15.011Z,10.70
2018-11-05T08:32:43.798Z,10.70
2018-11-05T08:35:12.821Z,10.90
2018-11-05T08:37:41.923Z,10.90
2018-11-05T08:40:16.687Z,10.90
2018-11-05T08:42:45.867Z,11.00
2018-11-05T08:45:15.551Z,11.00
2018-11-05T08:47:43.850Z,10.90
2018-11-05T08:50:13.575Z,11.00
2018-11-05T08:52:41.818Z,11.10
2018-11-05T08:55:12.454Z,11.20
2018-11-05T08:57:41.404Z,11.30
2018-11-05T09:00:19.967Z,11.40
2018-11-05T09:02:48.552Z,11.40
2018-11-05T09:05:17.035Z,11.40
2018-11-05T09:07:46.120Z,11.20
2018-11-05T09:10:14.556Z,11.30
2018-11-05T09:12:43.053Z,11.20
2018-11-05T09:15:13.880Z,11.20
2018-11-05T09:17:43.108Z,11.20
2018-11-05T09:20:12.750Z,11.10
2018-11-05T09:22:41.169Z,11.10
2018-11-05T09:25:10.608Z,11.20
2018-11-05T09:27:39.038Z,11.30
2018-11-05T09:30:09.461Z,11.50
2018-11-05T09:32:37.734Z,11.60
2018-11-05T09:35:06.471Z,11.60
2018-11-05T09:37:34.760Z,11.60
2018-11-05T09:40:03.127Z,11.60
2018-11-05T09:42:31.430Z,11.80
2018-11-05T09:44:59.749Z,11.80
2018-11-05T09:47:28.027Z,11.90
2018-11-05T09:49:56.304Z,12.10
2018-11-05T09:52:24.634Z,12.30
2018-11-05T09:54:52.913Z,12.40
2018-11-05T09:57:21.372Z,12.50
2018-11-05T09:59:49.410Z,12.70
2018-11-05T10:02:18.017Z,12.90
2018-11-05T10:04:46.466Z,13.00
2018-11-05T10:07:14.568Z,12.90
2018-11-05T10:09:42.860Z,13.10
2018-11-05T10:12:11.127Z,13.30
2018-11-05T10:14:39.471Z,13.40
2018-11-05T10:17:07.831Z,13.50
2018-11-05T10:19:36.158Z,13.50
2018-11-05T10:22:04.411Z,13.40
2018-11-05T10:24:32.830Z,13.30
2018-11-05T10:27:01.119Z,13.40
2018-11-05T10:29:29.465Z,13.50
2018-11-05T10:31:58.278Z,13.60
2018-11-05T10:34:26.541Z,13.70
2018-11-05T10:36:54.795Z,13.90
2018-11-05T10:39:23.089Z,13.90
2018-11-05T10:41:51.348Z,13.80
2018-11-05T10:44:19.632Z,13.70
2018-11-05T10:46:47.911Z,13.80
2018-11-05T10:49:16.146Z,13.80
2018-11-05T10:51:44.409Z,13.80
2018-11-05T10:54:12.610Z,13.90
2018-11-05T10:56:40.914Z,13.90
2018-11-05T10:59:09.141Z,14.00
2018-11-05T11:01:42.691Z,14.00
2018-11-05T11:04:16.350Z,13.90
2018-11-05T11:06:44.582Z,13.70
2018-11-05T11:09:12.875Z,13.60
2018-11-05T11:11:41.207Z,13.60
2018-11-05T11:14:09.466Z,13.70
2018-11-05T11:16:38.051Z,13.80
2018-11-05T11:19:06.546Z,13.80
2018-11-05T11:21:34.834Z,13.80
2018-11-05T11:24:03.128Z,13.90
2018-11-05T11:26:31.378Z,14.00
2018-11-05T11:29:00.221Z,14.10
2018-11-05T11:31:28.358Z,14.20
2018-11-05T11:33:56.631Z,14.30
2018-11-05T11:36:25.160Z,14.40
2018-11-05T11:38:53.474Z,14.40
2018-11-05T11:41:21.741Z,14.40
2018-11-05T11:43:49.986Z,14.40
2018-11-05T11:46:18.323Z,14.40
2018-11-05T11:48:46.670Z,14.40
2018-11-05T11:51:14.943Z,14.40
2018-11-05T11:53:43.302Z,14.50
2018-11-05T11:56:11.577Z,14.60
2018-11-05T11:58:39.875Z,14.60
2018-11-05T12:01:08.155Z,14.60
2018-11-05T12:03:36.415Z,14.70
2018-11-05T12:06:04.702Z,14.80
2018-11-05T12:08:32.990Z,14.90
2018-11-05T12:11:01.286Z,14.90
2018-11-05T12:13:29.855Z,15.10
2018-11-05T12:15:58.152Z,15.10
2018-11-05T12:18:26.437Z,15.10
2018-11-05T12:20:54.672Z,15.20
2018-11-05T12:23:23.031Z,15.40
2018-11-05T12:25:51.327Z,15.40
2018-11-05T12:28:19.691Z,15.50
2018-11-05T12:30:47.986Z,15.50
2018-11-05T12:33:16.256Z,15.60
2018-11-05T12:35:44.546Z,15.60
2018-11-05T12:38:12.799Z,15.60
2018-11-05T12:40:41.287Z,15.70
2018-11-05T12:43:09.547Z,15.60
2018-11-05T12:45:37.817Z,15.70
2018-11-05T12:48:06.203Z,15.70
2018-11-05T12:50:34.512Z,15.70
2018-11-05T12:53:02.775Z,15.80
2018-11-05T12:55:31.059Z,15.80
2018-11-05T12:57:59.357Z,15.80
2018-11-05T13:00:27.633Z,15.90
2018-11-05T13:02:56.996Z,15.90
2018-11-05T13:05:26.234Z,15.90
2018-11-05T13:07:54.507Z,15.90
2018-11-05T13:10:22.954Z,16.00
2018-11-05T13:12:51.312Z,16.00
2018-11-05T13:15:19.633Z,16.10
2018-11-05T13:17:47.946Z,16.20
2018-11-05T13:20:21.371Z,16.20
2018-11-05T13:22:49.750Z,16.20
2018-11-05T13:25:18.295Z,16.20
2018-11-05T13:27:47.781Z,16.20
2018-11-05T13:30:16.574Z,16.20
2018-11-05T13:32:45.107Z,16.20
2018-11-05T13:35:15.224Z,16.10
2018-11-05T13:37:43.910Z,16.20
2018-11-05T13:40:15.174Z,16.20
2018-11-05T13:42:43.953Z,16.20
2018-11-05T13:45:13.390Z,16.20
2018-11-05T13:47:42.375Z,16.20
2018-11-05T13:50:11.143Z,16.20
2018-11-05T13:52:39.362Z,16.20
2018-11-05T13:55:09.324Z,16.20
2018-11-05T13:57:37.674Z,16.30
2018-11-05T14:00:08.078Z,16.30
2018-11-05T14:02:36.428Z,16.30
2018-11-05T14:05:05.244Z,16.30
2018-11-05T14:07:33.583Z,16.20
2018-11-05T14:10:02.262Z,16.20
2018-11-05T14:12:31.333Z,16.20
2018-11-05T14:14:59.598Z,16.20
2018-11-05T14:17:27.858Z,16.20
2018-11-05T14:19:56.183Z,16.30
2018-11-05T14:22:24.551Z,16.30
2018-11-05T14:24:52.854Z,16.30
2018-11-05T14:27:21.386Z,16.30
2018-11-05T14:29:50.153Z,16.20
2018-11-05T14:32:18.089Z,16.20
2018-11-05T14:34:46.281Z,16.20
2018-11-05T14:37:14.635Z,16.20
2018-11-05T14:39:42.958Z,16.30
2018-11-05T14:42:11.339Z,16.20
2018-11-05T14:44:39.607Z,16.20
2018-11-05T14:47:07.866Z,16.30
2018-11-05T14:49:36.246Z,16.20
2018-11-05T14:52:04.559Z,16.20
2018-11-05T14:54:32.899Z,16.20
2018-11-05T14:57:01.246Z,16.20
2018-11-05T14:59:29.486Z,16.20
2018-11-05T15:02:03.150Z,16.20
2018-11-05T15:04:31.448Z,16.20
2018-11-05T15:06:59.783Z,16.10
2018-11-05T15:09:28.057Z,16.10
2018-11-05T15:11:56.849Z,16.10
2018-11-05T15:14:25.201Z,16.10
2018-11-05T15:16:53.516Z,16.10
2018-11-05T15:19:22.121Z,16.00
2018-11-05T15:21:50.112Z,16.00
2018-11-05T15:24:18.379Z,16.10
2018-11-05T15:26:46.975Z,16.10
2018-11-05T15:29:15.187Z,16.10
2018-11-05T15:31:43.470Z,16.00
2018-11-05T15:34:11.914Z,16.00
2018-11-05T15:36:40.234Z,15.90
2018-11-05T15:39:08.913Z,15.90
2018-11-05T15:41:37.565Z,15.80
2018-11-05T15:44:06.642Z,15.80
2018-11-05T15:46:34.954Z,15.80
2018-11-05T15:49:03.299Z,15.80
2018-11-05T15:51:31.782Z,15.70
2018-11-05T15:53:59.914Z,15.70
2018-11-05T15:56:28.783Z,15.70
2018-11-05T15:58:57.132Z,15.60
2018-11-05T16:01:25.761Z,15.50
2018-11-05T16:03:54.018Z,15.50
2018-11-05T16:06:22.502Z,15.40
2018-11-05T16:08:51.063Z,15.30
2018-11-05T16:11:19.311Z,15.20
2018-11-05T16:13:47.913Z,15.20
2018-11-05T16:16:16.298Z,15.20
2018-11-05T16:18:44.754Z,15.10
2018-11-05T16:21:13.105Z,15.00
2018-11-05T16:23:41.620Z,15.00
2018-11-05T16:26:09.935Z,14.90
2018-11-05T16:28:38.266Z,14.90
2018-11-05T16:31:06.608Z,14.90
2018-11-05T16:33:34.912Z,14.80
2018-11-05T16:36:03.199Z,14.70
2018-11-05T16:38:31.575Z,14.60
2018-11-05T16:40:59.770Z,14.60
2018-11-05T16:43:28.157Z,14.50
2018-11-05T16:45:56.515Z,14.60
2018-11-05T16:48:25.249Z,14.40
2018-11-05T16:50:53.599Z,14.30
2018-11-05T16:53:21.853Z,14.20
2018-11-05T16:55:50.144Z,14.30
2018-11-05T16:58:18.417Z,14.20
2018-11-05T17:00:47.000Z,14.20
2018-11-05T17:03:15.192Z,14.20
2018-11-05T17:05:43.473Z,14.20
2018-11-05T17:08:11.810Z,14.10
2018-11-05T17:10:40.166Z,14.00
2018-11-05T17:13:08.625Z,14.00
2018-11-05T17:15:36.833Z,14.00
2018-11-05T17:18:05.123Z,13.90
2018-11-05T17:20:33.508Z,13.80
2018-11-05T17:23:01.850Z,13.80
2018-11-05T17:25:30.181Z,13.80
2018-11-05T17:27:58.476Z,13.90
2018-11-05T17:30:26.734Z,13.80
2018-11-05T17:32:55.005Z,13.80
2018-11-05T17:35:23.322Z,13.80
2018-11-05T17:37:53.892Z,13.80
2018-11-05T17:40:22.908Z,13.70
2018-11-05T17:42:51.208Z,13.70
2018-11-05T17:45:20.156Z,13.70
2018-11-05T17:47:48.641Z,13.60
2018-11-05T17:50:18.549Z,13.60
2018-11-05T17:52:47.102Z,13.60
2018-11-05T17:55:15.639Z,13.50
2018-11-05T17:57:45.130Z,13.50
2018-11-05T18:00:15.463Z,13.50
2018-11-05T18:02:43.771Z,13.40
2018-11-05T18:05:12.018Z,13.40
2018-11-05T18:07:40.293Z,13.30
2018-11-05T18:10:08.772Z,13.30
2018-11-05T18:12:37.134Z,13.30
2018-11-05T18:15:07.717Z,13.20
2018-11-05T18:17:36.171Z,13.20
2018-11-05T18:20:04.741Z,13.20
2018-11-05T18:22:33.008Z,13.00
2018-11-05T18:25:01.294Z,12.90
2018-11-05T18:27:29.557Z,12.90
2018-11-05T18:29:57.981Z,12.70
2018-11-05T18:32:26.238Z,12.70
2018-11-05T18:34:54.831Z,12.50
2018-11-05T18:37:23.993Z,12.50
2018-11-05T18:39:52.232Z,12.50
2018-11-05T18:42:20.503Z,12.40
2018-11-05T18:44:48.767Z,12.40
2018-11-05T18:47:17.042Z,12.30
2018-11-05T18:49:46.874Z,12.30
2018-11-05T18:52:13.548Z,12.30
2018-11-05T18:54:41.868Z,12.30
2018-11-05T18:57:10.249Z,12.30
2018-11-05T18:59:38.502Z,12.30
2018-11-05T19:02:06.909Z,12.30
2018-11-05T19:04:35.341Z,12.10
2018-11-05T19:07:03.728Z,12.00
2018-11-05T19:09:32.043Z,12.00
2018-11-05T19:12:00.316Z,11.90
2018-11-05T19:14:28.609Z,11.80
2018-11-05T19:16:56.895Z,11.70
2018-11-05T19:19:25.199Z,11.70
2018-11-05T19:21:53.424Z,11.80
2018-11-05T19:24:21.861Z,11.70
2018-11-05T19:26:50.090Z,11.70
2018-11-05T19:29:18.387Z,11.60
2018-11-05T19:31:46.646Z,11.50
2018-11-05T19:34:15.072Z,11.50
2018-11-05T19:36:43.314Z,11.50
2018-11-05T19:39:12.940Z,11.40
2018-11-05T19:41:41.536Z,11.40
2018-11-05T19:44:09.858Z,11.40
2018-11-05T19:46:38.654Z,11.40
2018-11-05T19:49:06.959Z,11.30
2018-11-05T19:51:35.575Z,11.20
2018-11-05T19:54:03.917Z,11.10
2018-11-05T19:56:32.239Z,11.20
2018-11-05T19:59:00.594Z,11.00
2018-11-05T20:01:28.896Z,10.90
2018-11-05T20:03:57.191Z,10.90
2018-11-05T20:06:25.611Z,10.80
2018-11-05T20:08:53.916Z,10.80
2018-11-05T20:11:22.286Z,10.70
2018-11-05T20:13:50.644Z,10.70
2018-11-05T20:16:18.907Z,10.60
2018-11-05T20:18:47.517Z,10.50
2018-11-05T20:21:15.978Z,10.40
2018-11-05T20:23:44.589Z,10.30
2018-11-05T20:26:12.867Z,10.30
2018-11-05T20:28:41.225Z,10.30
2018-11-05T20:31:09.586Z,10.30
2018-11-05T20:33:38.095Z,10.30
2018-11-05T20:36:06.132Z,10.30
2018-11-05T20:38:34.409Z,10.30
2018-11-05T20:41:02.717Z,10.20
2018-11-05T20:43:30.981Z,10.20
2018-11-05T20:45:59.255Z,10.10
2018-11-05T20:48:27.512Z,10.10
2018-11-05T20:50:55.867Z,10.10
2018-11-05T20:53:24.202Z,10.00
2018-11-05T20:55:52.562Z,10.10
2018-11-05T20:58:20.818Z,10.00
2018-11-05T21:00:49.166Z,10.00
2018-11-05T21:03:17.499Z,10.00
2018-11-05T21:05:45.834Z,9.90
2018-11-05T21:08:14.146Z,9.90
2018-11-05T21:10:42.455Z,9.80
2018-11-05T21:13:10.708Z,9.80
2018-11-05T21:15:39.005Z,9.70
2018-11-05T21:18:07.469Z,9.60
2018-11-05T21:20:35.642Z,9.60
2018-11-05T21:23:04.028Z,9.60
2018-11-05T21:25:32.210Z,9.50
2018-11-05T21:28:00.552Z,9.50
2018-11-05T21:30:28.909Z,9.40
2018-11-05T21:32:57.376Z,9.40
2018-11-05T21:35:25.628Z,9.40
2018-11-05T21:37:53.967Z,9.40
2018-11-05T21:40:22.345Z,9.30
2018-11-05T21:42:50.799Z,9.30
2018-11-05T21:45:19.108Z,9.30
2018-11-05T21:47:47.419Z,9.30
2018-11-05T21:50:17.073Z,9.30
2018-11-05T21:52:45.778Z,9.40
2018-11-05T21:55:14.047Z,9.40
2018-11-05T21:57:43.933Z,9.30
2018-11-05T22:00:14.195Z,9.30
2018-11-05T22:02:47.840Z,9.30
2018-11-05T22:05:16.442Z,9.30
2018-11-05T22:07:45.127Z,9.30
2018-11-05T22:10:14.131Z,9.30
2018-11-05T22:12:43.011Z,9.30
2018-11-05T22:15:11.367Z,9.30
2018-11-05T22:17:39.709Z,9.30
2018-11-05T22:20:08.915Z,9.20
2018-11-05T22:22:37.315Z,9.20
2018-11-05T22:25:05.684Z,9.30
2018-11-05T22:27:34.129Z,9.30
2018-11-05T22:30:02.285Z,9.30
2018-11-05T22:32:30.987Z,9.20
2018-11-05T22:35:00.173Z,9.20
2018-11-05T22:37:28.572Z,9.10
2018-11-05T22:39:56.877Z,9.10
2018-11-05T22:42:25.212Z,9.10
2018-11-05T22:44:53.517Z,9.10
2018-11-05T22:47:21.766Z,9.00
2018-11-05T22:49:50.057Z,9.10
2018-11-05T22:52:18.348Z,9.10
2018-11-05T22:54:46.940Z,9.10
2018-11-05T22:57:15.220Z,9.00
2018-11-05T22:59:43.633Z,9.00
2018-11-05T23:02:12.054Z,8.90
2018-11-05T23:04:40.454Z,8.90
2018-11-05T23:07:08.758Z,8.90
2018-11-05T23:09:37.023Z,8.80
2018-11-05T23:12:05.430Z,8.80
2018-11-05T23:14:33.753Z,8.80
2018-11-05T23:17:02.099Z,8.70
2018-11-05T23:19:30.374Z,8.70
2018-11-05T23:21:58.646Z,8.60
2018-11-05T23:24:26.935Z,8.60
2018-11-05T23:26:55.262Z,8.60
2018-11-05T23:29:23.566Z,8.50
2018-11-05T23:31:51.912Z,8.40
2018-11-05T23:34:20.180Z,8.30
2018-11-05T23:36:48.477Z,8.30
2018-11-05T23:39:16.774Z,8.30
2018-11-05T23:41:45.102Z,8.30
2018-11-05T23:44:13.416Z,8.30
2018-11-05T23:46:41.707Z,8.20
2018-11-05T23:49:10.003Z,8.10
2018-11-05T23:51:38.300Z,8.00
2018-11-05T23:54:06.539Z,8.10
2018-11-05T23:56:34.804Z,8.20
2018-11-05T23:59:03.006Z,8.20
